Time;durP1;ratioP1;P1;durP2;ratioP2;P2;SDS_P1;SDS_P2;PMS_P1;PMS_P2;Temp;Humidity;BMP_temperature;BMP_pressure;BME280_temperature;BME280_humidity;BME280_pressure;Samples;Min_cycle;Max_cycle;Signal;HPM_P1;HPM_P2
2021/06/13 19:09:49;;;;;;;;;2.00;1.25;;;;;27.78;28.00;101856.00;4234820;26;46627;-85
2021/06/13 19:12:18;;;;;;;;;1.50;1.50;;;;;27.50;28.39;101828.69;4902345;29;46866;-79
2021/06/13 19:15:54;;;;;;;;;;;;;;;;;;;;;
2021/06/13 19:18:50;;;;;;;;;23.75;20.75;;;;;27.50;29.03;101844.66;4808752;29;69032;-84
2021/06/13 19:21:18;;;;;;;;;3.00;3.00;;;;;27.23;28.75;101816.38;4801891;29;45504;-87
2021/06/13 19:26:32;;;;;;;;;4.25;4.25;;;;;26.97;29.06;101823.47;5389145;23;45773;-81
2021/06/13 19:28:57;;;;;;;;;3.25;3.25;;;;;26.88;29.35;101822.31;4899437;29;45408;-81
2021/06/13 19:31:23;;;;;;;;;5.00;5.00;;;;;26.77;29.58;101828.34;4904439;29;45477;-78
2021/06/13 19:34:20;;;;;;;;;4.50;4.50;;;;;26.61;30.02;101818.72;4884910;29;46108;-83
2021/06/13 19:36:46;;;;;;;;;55.75;45.00;;;;;26.56;29.95;101820.84;4872996;29;45572;-78
2021/06/13 19:40:00;;;;;;;;;;;;;;;;;;;;;
2021/06/13 19:42:51;;;;;;;;;;;;;;;;;;;;;
2021/06/13 19:45:17;;;;;;;;;5.25;4.50;;;;;26.20;31.24;101821.38;4861718;29;74585;-79
2021/06/13 19:47:42;;;;;;;;;5.00;5.00;;;;;26.15;30.89;101822.59;4867124;29;45491;-78
2021/06/13 19:50:08;;;;;;;;;5.25;5.25;;;;;26.16;31.60;101821.66;4883352;29;45522;-79
2021/06/13 19:52:34;;;;;;;;;5.75;5.75;;;;;25.92;30.89;101815.16;4885159;29;45632;-81
2021/06/13 19:55:01;;;;;;;;;7.50;7.50;;;;;25.79;32.01;101812.47;4873424;29;45548;-82
2021/06/13 19:57:28;;;;;;;;;7.25;6.00;;;;;25.70;32.06;101819.22;4861746;29;45589;-81
2021/06/13 19:59:54;;;;;;;;;8.50;8.50;;;;;25.72;32.67;101843.84;4877808;29;45973;-82
2021/06/13 20:02:20;;;;;;;;;9.00;9.00;;;;;25.60;32.64;101839.28;4852698;29;45899;-80
2021/06/13 20:04:46;;;;;;;;;6.25;6.25;;;;;25.35;33.32;101808.97;4882006;29;45932;-82
2021/06/13 20:07:11;;;;;;;;;6.75;6.75;;;;;25.44;33.31;101848.22;4848819;29;45803;-80
2021/06/13 20:09:37;;;;;;;;;9.25;7.50;;;;;25.18;33.86;101837.38;4866678;29;45500;-81
2021/06/13 20:12:03;;;;;;;;;8.75;8.50;;;;;25.06;34.22;101824.84;4878683;29;45878;-79
2021/06/13 20:14:28;;;;;;;;;8.00;8.00;;;;;25.16;33.80;101857.88;4883501;29;46261;-81
2021/06/13 20:16:54;;;;;;;;;11.00;7.50;;;;;24.94;34.15;101824.66;4848685;29;45861;-81
2021/06/13 20:19:20;;;;;;;;;7.75;7.75;;;;;24.88;34.24;101833.81;4866733;29;45599;-80
2021/06/13 20:21:45;;;;;;;;;5.00;5.00;;;;;24.78;34.93;101840.63;4881258;29;45614;-81
2021/06/13 20:24:11;;;;;;;;;5.25;5.00;;;;;24.66;34.85;101828.91;4881131;29;45799;-81
2021/06/13 20:26:37;;;;;;;;;5.00;5.00;;;;;24.82;35.55;101875.75;4875923;29;45637;-80
2021/06/13 20:29:03;;;;;;;;;6.75;4.75;;;;;24.53;35.81;101842.03;4886329;29;45506;-80
2021/06/13 20:31:31;;;;;;;;;4.50;4.50;;;;;24.47;35.72;101842.38;4884967;29;46165;-79
2021/06/13 20:33:56;;;;;;;;;5.50;3.50;;;;;24.28;36.38;101825.75;4883832;29;45601;-78
2021/06/13 20:36:24;;;;;;;;;7.00;7.00;;;;;24.28;35.94;101832.81;4866979;29;45450;-78
2021/06/13 20:38:49;;;;;;;;;7.00;6.00;;;;;24.23;36.33;101848.13;4882822;29;45630;-77
2021/06/13 20:41:15;;;;;;;;;4.75;4.50;;;;;24.12;36.47;101846.06;4871252;29;45867;-78
2021/06/13 20:43:40;;;;;;;;;5.25;5.25;;;;;24.05;37.20;101850.84;4883504;29;46657;-78
2021/06/13 20:46:06;;;;;;;;;7.00;6.00;;;;;23.88;37.63;101836.75;4882386;29;45636;-78
2021/06/13 20:48:32;;;;;;;;;6.75;6.75;;;;;23.89;37.03;101846.41;4865858;29;45796;-78
2021/06/13 20:50:58;;;;;;;;;8.00;7.00;;;;;23.88;37.40;101859.75;4864441;29;45795;-78
2021/06/13 20:53:28;;;;;;;;;7.75;7.00;;;;;23.63;37.55;101837.25;4863289;29;45949;-78
2021/06/13 20:55:54;;;;;;;;;9.00;9.00;;;;;23.51;37.66;101830.81;4867209;29;45563;-79
2021/06/13 20:58:20;;;;;;;;;7.75;7.00;;;;;23.49;38.00;101842.34;4867456;29;45905;-78
2021/06/13 21:00:45;;;;;;;;;9.25;8.00;;;;;23.44;38.59;101835.56;4833225;29;45556;-79
2021/06/13 21:03:11;;;;;;;;;6.25;6.00;;;;;23.39;38.77;101851.69;4879586;29;45453;-78
2021/06/13 21:05:37;;;;;;;;;8.25;7.25;;;;;23.24;38.38;101834.81;4866115;29;45621;-79
2021/06/13 21:08:02;;;;;;;;;7.50;7.00;;;;;23.23;38.79;101841.03;4851324;29;45610;-80
2021/06/13 21:10:28;;;;;;;;;3.75;3.75;;;;;23.15;39.19;101835.28;4866679;29;45535;-82
2021/06/13 21:13:43;;;;;;;;;5.50;5.50;;;;;23.19;39.05;101847.41;4877871;29;46355;-83
2021/06/13 21:16:09;;;;;;;;;40.00;33.25;;;;;22.87;39.66;101811.97;5060314;23;46496;-79
2021/06/13 21:18:35;;;;;;;;;9.75;8.25;;;;;22.87;39.80;101825.19;4875321;29;45492;-78
2021/06/13 21:21:00;;;;;;;;;7.75;7.00;;;;;22.83;39.82;101820.16;4878922;29;45629;-78
2021/06/13 21:23:26;;;;;;;;;6.00;6.00;;;;;22.76;40.29;101828.38;4876433;29;46476;-79
2021/06/13 21:25:52;;;;;;;;;5.25;5.25;;;;;22.72;40.39;101836.53;4870696;29;45465;-79
2021/06/13 21:28:17;;;;;;;;;5.25;5.25;;;;;22.72;40.81;101841.81;4866602;29;45663;-78
2021/06/13 21:30:43;;;;;;;;;6.00;5.75;;;;;22.54;40.44;101818.84;4853525;29;45609;-78
2021/06/13 21:33:09;;;;;;;;;6.25;5.00;;;;;22.50;40.97;101821.72;4865686;29;45638;-78
2021/06/13 21:35:34;;;;;;;;;6.25;4.75;;;;;22.39;40.66;101807.25;4880531;29;45870;-78
2021/06/13 21:38:00;;;;;;;;;5.00;4.00;;;;;22.56;40.64;101846.97;4863538;29;45869;-78
2021/06/13 21:40:26;;;;;;;;;2.00;2.00;;;;;22.29;41.18;101811.28;4867521;29;45611;-78
2021/06/13 21:42:52;;;;;;;;;5.00;4.00;;;;;22.32;41.19;101824.34;4880592;29;45669;-79
2021/06/13 21:45:18;;;;;;;;;5.00;3.00;;;;;22.28;41.14;101814.84;4854727;29;45496;-79
2021/06/13 21:47:43;;;;;;;;;3.75;3.00;;;;;22.27;41.39;101828.97;4847852;29;45428;-79
2021/06/13 21:50:10;;;;;;;;;3.00;3.00;;;;;22.21;41.66;101823.97;4864068;29;45745;-78
2021/06/13 21:52:36;;;;;;;;;6.25;4.00;;;;;22.17;41.42;101813.56;4854978;29;47641;-79
2021/06/13 21:55:02;;;;;;;;;4.00;4.00;;;;;22.10;41.34;101812.16;4894924;29;45532;-79
2021/06/13 21:57:27;;;;;;;;;3.00;3.00;;;;;22.08;41.78;101803.44;4866508;29;45550;-79
2021/06/13 21:59:53;;;;;;;;;4.00;2.50;;;;;22.03;41.65;101810.72;4852626;29;45551;-78
2021/06/13 22:02:19;;;;;;;;;3.75;3.00;;;;;21.89;41.62;101796.41;4881228;29;48108;-79
2021/06/13 22:04:45;;;;;;;;;4.00;4.00;;;;;21.90;41.67;101799.88;4875807;29;45824;-79
2021/06/13 22:07:10;;;;;;;;;6.00;3.00;;;;;21.82;41.93;101800.28;4858847;29;45538;-79
2021/06/13 22:09:36;;;;;;;;;3.00;3.00;;;;;21.75;41.97;101799.66;4871915;29;45651;-79
2021/06/13 22:12:02;;;;;;;;;3.00;3.00;;;;;21.68;42.53;101801.72;4879338;29;46737;-79
2021/06/13 22:14:29;;;;;;;;;3.25;3.25;;;;;21.61;42.59;101789.72;4881310;29;45508;-79
2021/06/13 22:16:57;;;;;;;;;4.00;4.00;;;;;21.78;42.43;101827.69;4882617;29;45421;-79
2021/06/13 22:19:23;;;;;;;;;2.00;2.00;;;;;21.63;42.64;101798.44;4856250;29;45495;-79
2021/06/13 22:21:48;;;;;;;;;4.50;2.75;;;;;21.61;42.73;101812.63;4885350;29;45532;-79
2021/06/13 22:24:14;;;;;;;;;3.75;3.75;;;;;21.45;42.95;101792.22;4893077;29;45514;-79
2021/06/13 22:26:39;;;;;;;;;5.75;4.00;;;;;21.42;43.03;101803.78;4866638;29;45882;-79
2021/06/13 22:29:05;;;;;;;;;5.25;5.25;;;;;21.41;43.09;101819.66;4871060;29;45470;-79
2021/06/13 22:31:30;;;;;;;;;5.00;5.00;;;;;21.34;43.70;101795.34;4884118;29;45548;-78
2021/06/13 22:33:56;;;;;;;;;4.50;4.50;;;;;21.24;43.62;101794.03;4875869;29;45551;-79
2021/06/13 22:36:21;;;;;;;;;6.25;4.75;;;;;21.23;43.77;101776.50;4885090;29;45374;-78
2021/06/13 22:38:47;;;;;;;;;6.00;6.00;;;;;21.13;44.17;101779.56;4871339;29;45440;-79
2021/06/13 22:41:13;;;;;;;;;5.25;5.00;;;;;21.09;44.36;101781.47;4884623;29;45555;-79
2021/06/13 22:43:38;;;;;;;;;8.00;5.25;;;;;21.06;43.72;101772.84;4869659;29;45415;-78
2021/06/13 22:46:04;;;;;;;;;5.75;5.75;;;;;21.04;44.20;101783.44;4866255;29;45393;-79
2021/06/13 22:48:33;;;;;;;;;5.00;4.50;;;;;21.05;44.62;101794.81;4872758;29;45536;-79
2021/06/13 22:51:04;;;;;;;;;5.25;4.25;;;;;21.00;44.57;101786.25;4868019;29;45611;-78
2021/06/13 22:53:31;;;;;;;;;4.00;4.00;;;;;20.90;44.41;101772.63;4859674;29;45787;-79
2021/06/13 22:55:57;;;;;;;;;3.00;2.75;;;;;20.87;44.65;101765.69;4878078;29;45532;-79
2021/06/13 22:58:23;;;;;;;;;4.00;4.00;;;;;20.85;44.53;101770.16;4872690;29;45499;-78
2021/06/13 23:00:52;;;;;;;;;5.00;4.00;;;;;20.76;44.96;101760.03;4871012;29;46093;-78
2021/06/13 23:03:20;;;;;;;;;3.75;3.75;;;;;20.67;45.41;101762.13;4884683;29;45573;-79
2021/06/13 23:05:46;;;;;;;;;4.00;4.00;;;;;20.64;44.83;101759.63;4866234;29;45430;-78
2021/06/13 23:08:12;;;;;;;;;2.75;2.75;;;;;20.75;45.21;101790.78;4881427;29;45662;-79
2021/06/13 23:10:38;;;;;;;;;4.25;3.50;;;;;20.61;44.99;101776.41;4878458;29;46658;-79
2021/06/13 23:13:07;;;;;;;;;4.00;3.75;;;;;20.60;45.16;101789.63;4879308;29;45533;-79
2021/06/13 23:15:34;;;;;;;;;3.50;3.00;;;;;20.47;45.52;101768.25;4880475;29;45489;-79
2021/06/13 23:18:02;;;;;;;;;5.50;4.00;;;;;20.42;45.55;101752.63;4885449;29;45580;-79
2021/06/13 23:20:28;;;;;;;;;5.00;3.00;;;;;20.43;45.67;101762.25;4858301;29;45560;-79
2021/06/13 23:22:54;;;;;;;;;3.00;2.00;;;;;20.37;45.96;101757.22;4858435;29;45532;-79
2021/06/13 23:25:20;;;;;;;;;3.00;3.00;;;;;20.32;46.00;101756.56;4870270;29;45551;-79
2021/06/13 23:27:46;;;;;;;;;3.00;3.00;;;;;20.24;45.93;101748.94;4869157;29;45498;-79
2021/06/13 23:30:12;;;;;;;;;4.00;4.00;;;;;20.24;45.97;101757.72;4880528;29;45488;-79
2021/06/13 23:32:38;;;;;;;;;3.00;3.00;;;;;20.20;45.98;101756.13;4874901;29;45769;-78
2021/06/13 23:35:05;;;;;;;;;2.75;2.50;;;;;20.17;46.09;101748.34;4873922;29;45441;-78
2021/06/13 23:37:38;;;;;;;;;5.00;3.00;;;;;20.33;46.26;101785.44;4878693;29;45547;-78
2021/06/13 23:40:05;;;;;;;;;4.00;4.00;;;;;20.07;46.38;101744.38;4882801;29;46839;-78
2021/06/13 23:42:31;;;;;;;;;19.25;16.00;;;;;20.08;46.45;101744.31;4887455;29;45531;-78
2021/06/13 23:45:00;;;;;;;;;18.00;16.50;;;;;20.03;46.69;101735.72;4887485;29;45481;-78
2021/06/13 23:47:29;;;;;;;;;9.25;8.75;;;;;20.07;46.64;101736.47;4887845;29;45485;-78
2021/06/13 23:49:54;;;;;;;;;9.50;8.00;;;;;19.91;47.05;101723.88;4885583;29;46737;-80
2021/06/13 23:52:20;;;;;;;;;6.50;6.50;;;;;19.91;46.90;101726.50;4901025;29;45506;-78
2021/06/13 23:54:46;;;;;;;;;6.75;4.75;;;;;19.88;47.28;101730.16;4887243;29;45497;-79
2021/06/13 23:57:12;;;;;;;;;5.50;5.25;;;;;19.88;47.16;101721.38;4884798;29;45574;-79
2021/06/13 23:59:39;;;;;;;;;7.75;7.25;;;;;19.87;47.25;101728.41;4886804;29;46279;-78
